Dallas, Texas
Traffic Map
Current Weather Conditions
Dallas, Texas
Few Clouds
Few Clouds
86°
Feels Like: 91°
Wind Chill: 86° Ceiling: Unl
Heat Index: 91° Visibility: 10mi
Dew Point: 71° Wind: 18mph
Humidity: 61% Direction: 160° (SSE)
Pressure: 29.92in Gusts: 0mph
Raw Report DataKDAL 030253Z 16016KT 10SM FEW250 30/22 A2992 RMK AO2 SLP124 T03000217 53016
Traffic Incident Summary
Active as of:
Severity:
Category:
InformationThere was an issue retrieving the traffic information for this location. Please try a different location or try again shortly.
Advertisements
Track Severe Weather on mobile